Time;durP1;ratioP1;P1;durP2;ratioP2;P2;SDS_P1;SDS_P2;PMS_P1;PMS_P2;Temp;Humidity;BMP_temperature;BMP_pressure;BME280_temperature;BME280_humidity;BME280_pressure;Samples;Min_cycle;Max_cycle;Signal;HPM_P1;HPM_P2
2023/03/17 00:01:41;;;;;;;;;;;12.20;41.90;;;;;;5005850;28;19925;-91
2023/03/17 00:04:09;;;;;;;;;;;12.20;41.80;;;;;;4989861;28;20356;-89
2023/03/17 00:06:35;;;;;;;;;;;12.20;41.80;;;;;;4989746;28;19949;-89
2023/03/17 00:09:01;;;;;;;;;;;12.30;41.70;;;;;;4991458;28;19910;-86
2023/03/17 00:11:27;;;;;;;;;;;12.30;41.70;;;;;;4989672;28;19928;-92
2023/03/17 00:13:52;;;;;;;;;;;12.20;41.90;;;;;;5005597;28;19910;-86
2023/03/17 00:16:20;;;;;;;;;;;12.30;41.90;;;;;;4990536;28;19926;-89
2023/03/17 00:18:47;;;;;;;;;;;12.30;41.90;;;;;;4991199;28;20348;-91
2023/03/17 00:21:13;;;;;;;;;;;12.30;41.90;;;;;;4990848;28;19914;-88
2023/03/17 00:23:39;;;;;;;;;;;12.30;41.90;;;;;;4989458;28;19989;-92
2023/03/17 00:26:05;;;;;;;;;;;12.40;41.70;;;;;;4991382;28;19914;-87
2023/03/17 00:28:31;;;;;;;;;;;12.50;41.60;;;;;;4990536;28;19933;-88
2023/03/17 00:31:00;;;;;;;;;;;12.50;41.50;;;;;;4990410;28;20379;-89
2023/03/17 00:33:27;;;;;;;;;;;12.60;41.40;;;;;;4990184;28;19971;-91
2023/03/17 00:35:53;;;;;;;;;;;12.60;41.40;;;;;;4990678;28;19910;-87
2023/03/17 00:38:20;;;;;;;;;;;12.60;41.30;;;;;;4989178;28;20320;-87
2023/03/17 00:40:46;;;;;;;;;;;12.60;41.30;;;;;;4989359;28;19953;-89
2023/03/17 00:43:12;;;;;;;;;;;12.70;41.20;;;;;;4989029;28;19975;-87
2023/03/17 00:45:38;;;;;;;;;;;12.70;41.20;;;;;;4991047;28;19937;-87
2023/03/17 00:48:14;;;;;;;;;;;12.70;41.10;;;;;;4989137;28;20337;-87
2023/03/17 00:50:40;;;;;;;;;;;12.70;41.10;;;;;;4990724;28;20398;-90
2023/03/17 00:53:09;;;;;;;;;;;12.70;41.10;;;;;;4990616;28;20396;-90
2023/03/17 00:55:35;;;;;;;;;;;12.70;41.00;;;;;;4990586;28;19914;-91
2023/03/17 00:58:01;;;;;;;;;;;12.70;41.00;;;;;;4989295;28;20011;-90
2023/03/17 01:00:28;;;;;;;;;;;12.70;41.00;;;;;;4990885;28;19913;-89
2023/03/17 01:02:55;;;;;;;;;;;12.70;40.90;;;;;;4994251;28;20305;-88
2023/03/17 01:05:21;;;;;;;;;;;12.70;40.90;;;;;;4994283;28;19910;-88
2023/03/17 01:07:51;;;;;;;;;;;12.70;40.90;;;;;;4994221;28;20036;-89
2023/03/17 01:10:26;;;;;;;;;;;12.70;40.90;;;;;;4994597;28;19914;-90
2023/03/17 01:12:53;;;;;;;;;;;12.70;40.90;;;;;;4992891;28;20053;-87
2023/03/17 01:15:20;;;;;;;;;;;12.70;40.90;;;;;;4994257;28;19917;-88
2023/03/17 01:17:46;;;;;;;;;;;12.70;40.90;;;;;;4993900;28;19929;-88
2023/03/17 01:20:18;;;;;;;;;;;12.60;40.90;;;;;;4993830;28;19910;-88
2023/03/17 01:22:52;;;;;;;;;;;12.70;40.90;;;;;;4994211;28;19949;-87
2023/03/17 01:25:17;;;;;;;;;;;12.70;40.80;;;;;;4994115;28;19917;-90
2023/03/17 01:27:45;;;;;;;;;;;12.70;40.70;;;;;;4992698;28;19918;-90
2023/03/17 01:30:27;;;;;;;;;;;12.70;40.70;;;;;;4993354;28;19911;-86
2023/03/17 01:32:54;;;;;;;;;;;12.70;40.70;;;;;;4993921;28;19926;-87
2023/03/17 01:35:20;;;;;;;;;;;12.70;40.70;;;;;;4993977;28;19916;-89
2023/03/17 01:37:46;;;;;;;;;;;12.70;40.70;;;;;;4993621;28;20001;-89
2023/03/17 01:40:19;;;;;;;;;;;12.70;40.70;;;;;;4993130;28;19937;-87
2023/03/17 01:42:59;;;;;;;;;;;12.70;40.70;;;;;;4993640;28;20291;-88
2023/03/17 01:45:43;;;;;;;;;;;12.70;40.70;;;;;;4992075;28;19918;-87
2023/03/17 01:48:09;;;;;;;;;;;12.60;40.80;;;;;;4993334;28;19928;-91
2023/03/17 01:50:35;;;;;;;;;;;12.60;40.90;;;;;;4992037;28;19910;-91
2023/03/17 01:53:02;;;;;;;;;;;12.60;40.90;;;;;;4991695;28;19918;-89
2023/03/17 01:55:29;;;;;;;;;;;12.50;41.00;;;;;;4993080;28;19917;-88
2023/03/17 01:57:55;;;;;;;;;;;12.50;41.00;;;;;;4993016;28;19926;-86
2023/03/17 02:00:22;;;;;;;;;;;12.50;41.10;;;;;;4993295;28;19920;-88
2023/03/17 02:02:50;;;;;;;;;;;12.40;41.10;;;;;;4993334;28;19922;-86
2023/03/17 02:05:17;;;;;;;;;;;12.40;41.20;;;;;;4993019;28;20361;-86
2023/03/17 02:07:43;;;;;;;;;;;12.40;41.20;;;;;;4993034;28;19972;-88
2023/03/17 02:10:10;;;;;;;;;;;12.40;41.20;;;;;;4991494;28;20008;-91
2023/03/17 02:12:36;;;;;;;;;;;12.40;41.20;;;;;;4993041;28;19913;-91
2023/03/17 02:15:02;;;;;;;;;;;12.50;41.20;;;;;;4992589;28;19921;-89
2023/03/17 02:17:27;;;;;;;;;;;12.50;41.20;;;;;;4991327;28;19922;-89
2023/03/17 02:19:54;;;;;;;;;;;12.50;41.10;;;;;;4992365;28;19917;-89
2023/03/17 02:22:19;;;;;;;;;;;12.60;41.10;;;;;;4991442;28;19933;-88
2023/03/17 02:24:56;;;;;;;;;;;12.60;41.00;;;;;;4992777;28;19910;-89
2023/03/17 02:27:28;;;;;;;;;;;12.60;41.00;;;;;;4992641;28;20541;-90
2023/03/17 02:29:54;;;;;;;;;;;12.70;40.90;;;;;;4992464;28;19917;-91
2023/03/17 02:32:19;;;;;;;;;;;12.60;40.90;;;;;;4992762;28;19918;-87
2023/03/17 02:34:45;;;;;;;;;;;12.60;40.80;;;;;;4992470;28;19949;-87
2023/03/17 02:37:11;;;;;;;;;;;12.50;40.80;;;;;;4990690;28;20280;-91
2023/03/17 02:39:37;;;;;;;;;;;12.50;40.90;;;;;;4990873;28;19996;-90
2023/03/17 02:42:04;;;;;;;;;;;12.40;40.90;;;;;;4990868;28;19992;-89
2023/03/17 02:44:30;;;;;;;;;;;12.30;40.90;;;;;;4992358;28;19910;-87
2023/03/17 02:46:55;;;;;;;;;;;12.10;40.90;;;;;;4992212;28;20402;-92
2023/03/17 02:49:21;;;;;;;;;;;12.00;41.00;;;;;;4992484;28;20013;-88
2023/03/17 02:51:47;;;;;;;;;;;11.90;41.10;;;;;;4991989;28;19918;-87
2023/03/17 02:54:12;;;;;;;;;;;11.80;41.30;;;;;;4992277;28;19913;-86
2023/03/17 02:56:38;;;;;;;;;;;11.60;41.60;;;;;;4991732;28;19914;-87
2023/03/17 02:59:04;;;;;;;;;;;11.50;41.80;;;;;;4991227;28;19914;-88
2023/03/17 03:01:29;;;;;;;;;;;11.50;42.10;;;;;;4991750;28;20385;-88
2023/03/17 03:03:55;;;;;;;;;;;11.40;42.30;;;;;;4990775;28;20583;-89
2023/03/17 03:06:22;;;;;;;;;;;11.40;42.50;;;;;;4990842;28;19914;-88
2023/03/17 03:08:48;;;;;;;;;;;11.40;42.60;;;;;;4992191;28;19918;-86
2023/03/17 03:11:14;;;;;;;;;;;11.40;42.70;;;;;;4990471;28;20424;-89
2023/03/17 03:13:40;;;;;;;;;;;11.30;42.70;;;;;;4991651;28;19921;-89
2023/03/17 03:16:05;;;;;;;;;;;11.30;42.80;;;;;;4990257;28;19917;-87
2023/03/17 03:18:31;;;;;;;;;;;11.30;42.90;;;;;;4991902;28;19981;-87
2023/03/17 03:20:57;;;;;;;;;;;11.40;42.80;;;;;;4990379;28;20004;-90
2023/03/17 03:23:23;;;;;;;;;;;11.40;42.80;;;;;;4989603;28;19930;-89
2023/03/17 03:25:48;;;;;;;;;;;11.30;42.90;;;;;;4991415;28;19914;-86
2023/03/17 03:28:14;;;;;;;;;;;11.40;42.80;;;;;;4991233;28;19926;-87
2023/03/17 03:30:40;;;;;;;;;;;11.40;42.80;;;;;;4991469;28;19917;-92
2023/03/17 03:33:06;;;;;;;;;;;11.40;42.90;;;;;;4991304;28;19925;-89
2023/03/17 03:35:33;;;;;;;;;;;11.40;42.70;;;;;;4990021;28;19910;-88
2023/03/17 03:37:59;;;;;;;;;;;11.40;42.70;;;;;;4991224;28;19918;-88
2023/03/17 03:40:25;;;;;;;;;;;11.40;42.80;;;;;;4990511;28;20372;-88
2023/03/17 03:42:50;;;;;;;;;;;11.40;42.80;;;;;;4990867;28;19933;-88
2023/03/17 03:45:16;;;;;;;;;;;11.30;42.70;;;;;;4990948;28;19916;-87
2023/03/17 03:47:41;;;;;;;;;;;11.30;42.60;;;;;;4989682;28;19918;-86
2023/03/17 03:50:07;;;;;;;;;;;11.20;42.50;;;;;;4991259;28;19924;-91
2023/03/17 03:52:33;;;;;;;;;;;11.10;42.50;;;;;;4990911;28;19941;-89
2023/03/17 03:54:59;;;;;;;;;;;11.00;42.60;;;;;;4989631;28;19971;-87
2023/03/17 03:57:24;;;;;;;;;;;10.80;42.70;;;;;;4990450;28;19953;-87
2023/03/17 03:59:50;;;;;;;;;;;10.70;42.90;;;;;;5005786;28;19909;-85
2023/03/17 04:02:16;;;;;;;;;;;10.70;43.20;;;;;;4990711;28;19940;-87
2023/03/17 04:04:41;;;;;;;;;;;10.60;43.60;;;;;;4989622;28;20008;-85
2023/03/17 04:07:08;;;;;;;;;;;10.50;43.70;;;;;;4989202;28;19917;-89
2023/03/17 04:09:34;;;;;;;;;;;10.50;43.80;;;;;;4989671;28;19917;-88
2023/03/17 04:11:59;;;;;;;;;;;10.50;43.90;;;;;;4990851;28;19909;-87
2023/03/17 04:14:25;;;;;;;;;;;10.40;44.00;;;;;;4990717;28;19910;-90
2023/03/17 04:16:50;;;;;;;;;;;10.40;44.10;;;;;;5005380;28;19918;-86
2023/03/17 04:19:16;;;;;;;;;;;10.40;44.40;;;;;;4991242;28;20376;-89
2023/03/17 04:21:42;;;;;;;;;;;10.40;44.30;;;;;;4990609;28;19948;-86
2023/03/17 04:24:07;;;;;;;;;;;10.30;44.30;;;;;;4990995;28;19945;-89
2023/03/17 04:26:33;;;;;;;;;;;10.30;44.40;;;;;;4989311;28;19921;-87
2023/03/17 04:28:59;;;;;;;;;;;10.30;44.30;;;;;;4990550;28;19984;-87
2023/03/17 04:31:24;;;;;;;;;;;10.20;44.40;;;;;;4990308;28;19914;-88
2023/03/17 04:33:50;;;;;;;;;;;10.20;44.50;;;;;;4990757;28;19934;-89
2023/03/17 04:36:20;;;;;;;;;;;10.20;44.60;;;;;;4992482;28;20297;-86
2023/03/17 04:38:46;;;;;;;;;;;10.20;44.80;;;;;;4994592;28;19918;-90
2023/03/17 04:41:12;;;;;;;;;;;10.20;44.80;;;;;;4993347;28;19993;-87
2023/03/17 04:43:38;;;;;;;;;;;10.10;44.80;;;;;;4993430;28;19933;-88
2023/03/17 04:46:03;;;;;;;;;;;10.10;44.90;;;;;;4994228;28;20365;-86
2023/03/17 04:48:30;;;;;;;;;;;10.10;44.90;;;;;;4994597;28;19917;-86
2023/03/17 04:50:56;;;;;;;;;;;10.00;45.00;;;;;;4994816;28;19910;-90
2023/03/17 04:53:22;;;;;;;;;;;10.10;45.10;;;;;;4994639;28;19922;-90
2023/03/17 04:55:47;;;;;;;;;;;10.00;45.10;;;;;;4994362;28;20048;-87
2023/03/17 04:58:13;;;;;;;;;;;10.00;45.20;;;;;;4993661;28;20060;-87
2023/03/17 05:00:39;;;;;;;;;;;10.00;45.40;;;;;;4992712;28;19917;-90
2023/03/17 05:03:08;;;;;;;;;;;10.00;45.60;;;;;;4992229;28;19932;-91
2023/03/17 05:05:33;;;;;;;;;;;9.90;45.60;;;;;;4994197;28;19929;-89
2023/03/17 05:07:59;;;;;;;;;;;9.90;45.50;;;;;;4994167;28;19918;-90
2023/03/17 05:10:25;;;;;;;;;;;9.90;45.60;;;;;;4994112;28;20272;-86
2023/03/17 05:12:51;;;;;;;;;;;9.90;45.70;;;;;;4992905;28;19918;-88
2023/03/17 05:15:16;;;;;;;;;;;9.90;45.70;;;;;;4993659;28;20285;-90
2023/03/17 05:17:42;;;;;;;;;;;9.80;45.70;;;;;;4994184;28;19922;-85
2023/03/17 05:20:09;;;;;;;;;;;9.80;45.70;;;;;;4993841;28;20351;-91
2023/03/17 05:22:35;;;;;;;;;;;9.70;45.60;;;;;;4993747;28;20372;-87
2023/03/17 05:25:01;;;;;;;;;;;9.70;45.40;;;;;;4993475;28;20380;-87
2023/03/17 05:27:27;;;;;;;;;;;9.70;45.40;;;;;;4992255;28;19941;-89
2023/03/17 05:29:53;;;;;;;;;;;9.60;45.40;;;;;;4993595;28;19914;-90
2023/03/17 05:32:19;;;;;;;;;;;9.60;45.50;;;;;;4990098;28;20388;-87
2023/03/17 05:34:45;;;;;;;;;;;9.50;45.50;;;;;;4993150;28;19909;-87
2023/03/17 05:37:11;;;;;;;;;;;9.50;45.50;;;;;;4992447;28;19910;-88
2023/03/17 05:39:37;;;;;;;;;;;9.50;45.80;;;;;;4991860;28;19910;-89
2023/03/17 05:42:03;;;;;;;;;;;9.40;46.00;;;;;;4991480;28;19918;-91
2023/03/17 05:44:28;;;;;;;;;;;9.40;46.00;;;;;;4991619;28;19910;-91
2023/03/17 05:46:54;;;;;;;;;;;9.40;46.00;;;;;;4990854;28;19913;-87
2023/03/17 05:49:20;;;;;;;;;;;9.50;46.10;;;;;;4993134;28;19917;-88
2023/03/17 05:51:46;;;;;;;;;;;9.50;46.10;;;;;;4992337;28;20008;-86
2023/03/17 05:54:11;;;;;;;;;;;9.50;46.10;;;;;;4992470;28;20061;-89
2023/03/17 05:56:41;;;;;;;;;;;9.50;46.10;;;;;;4991280;28;19932;-87
2023/03/17 05:59:07;;;;;;;;;;;9.60;46.30;;;;;;4991306;28;20021;-91
2023/03/17 06:01:32;;;;;;;;;;;9.60;46.60;;;;;;4990317;28;20288;-87
2023/03/17 06:03:59;;;;;;;;;;;9.70;46.70;;;;;;4991114;28;19925;-90
2023/03/17 06:06:25;;;;;;;;;;;9.80;46.60;;;;;;4988047;28;20571;-90
2023/03/17 06:08:51;;;;;;;;;;;10.00;46.80;;;;;;4990044;28;19921;-88
2023/03/17 06:11:19;;;;;;;;;;;10.20;47.20;;;;;;4987694;28;19924;-90
2023/03/17 06:13:45;;;;;;;;;;;10.50;47.70;;;;;;4987149;28;19988;-88
2023/03/17 06:16:11;;;;;;;;;;;11.00;48.00;;;;;;4987209;28;19918;-89
2023/03/17 06:18:37;;;;;;;;;;;11.40;47.70;;;;;;4987902;28;20008;-91
2023/03/17 06:21:02;;;;;;;;;;;11.80;47.60;;;;;;4987480;28;19968;-90
2023/03/17 06:23:28;;;;;;;;;;;12.30;47.40;;;;;;4986956;28;19992;-87
2023/03/17 06:25:54;;;;;;;;;;;12.80;47.00;;;;;;4990036;28;19918;-89
2023/03/17 06:28:19;;;;;;;;;;;13.30;45.70;;;;;;4989501;28;19924;-92
2023/03/17 06:30:48;;;;;;;;;;;13.70;44.40;;;;;;4987855;28;19980;-89
2023/03/17 06:33:14;;;;;;;;;;;14.00;43.40;;;;;;4987609;28;19922;-89
2023/03/17 06:35:40;;;;;;;;;;;14.50;42.80;;;;;;4990190;28;19913;-89
2023/03/17 06:38:06;;;;;;;;;;;14.90;42.60;;;;;;4989989;28;19928;-91
2023/03/17 06:40:32;;;;;;;;;;;15.30;42.20;;;;;;4989497;28;19937;-87
2023/03/17 06:42:58;;;;;;;;;;;15.60;41.30;;;;;;4988310;28;19926;-88
2023/03/17 06:45:24;;;;;;;;;;;15.80;40.90;;;;;;4988534;28;20381;-88
2023/03/17 06:47:50;;;;;;;;;;;16.20;39.90;;;;;;4990521;28;19921;-88
2023/03/17 06:50:16;;;;;;;;;;;16.40;39.30;;;;;;4989015;28;19914;-86
2023/03/17 06:52:42;;;;;;;;;;;16.70;39.10;;;;;;4989403;28;19945;-89
2023/03/17 06:55:07;;;;;;;;;;;17.00;38.50;;;;;;4989648;28;19913;-87
2023/03/17 06:57:33;;;;;;;;;;;17.30;38.80;;;;;;4987979;28;19918;-87
2023/03/17 06:59:59;;;;;;;;;;;17.70;38.40;;;;;;4988252;28;19918;-89
2023/03/17 07:02:25;;;;;;;;;;;18.10;37.90;;;;;;4985014;28;20321;-90
2023/03/17 07:04:50;;;;;;;;;;;18.30;36.50;;;;;;4988540;28;19936;-89
2023/03/17 07:07:16;;;;;;;;;;;18.40;35.70;;;;;;4986011;28;20306;-88
2023/03/17 07:09:42;;;;;;;;;;;18.30;35.00;;;;;;4984557;28;19917;-90
2023/03/17 07:12:10;;;;;;;;;;;18.20;34.70;;;;;;4985938;28;20000;-91
2023/03/17 07:14:36;;;;;;;;;;;18.20;34.90;;;;;;4983164;28;19918;-89
2023/03/17 07:17:12;;;;;;;;;;;18.30;34.80;;;;;;5003429;28;19968;-89
2023/03/17 07:19:41;;;;;;;;;;;18.30;34.60;;;;;;4987670;28;19918;-90
2023/03/17 07:22:07;;;;;;;;;;;18.30;33.80;;;;;;4989488;28;19918;-90
2023/03/17 07:24:45;;;;;;;;;;;18.30;33.50;;;;;;4984928;28;19924;-88
2023/03/17 07:27:28;;;;;;;;;;;;;;;;;;;;;
2023/03/17 07:30:01;;;;;;;;;;;18.40;33.20;;;;;;4987936;28;19926;-91
2023/03/17 07:32:29;;;;;;;;;;;18.30;32.70;;;;;;4984526;28;20420;-89
2023/03/17 07:34:55;;;;;;;;;;;18.30;32.60;;;;;;4983266;28;19969;-91
2023/03/17 07:37:22;;;;;;;;;;;18.30;32.70;;;;;;4982724;28;19932;-89
2023/03/17 07:39:47;;;;;;;;;;;18.40;33.10;;;;;;4984063;28;20017;-90
2023/03/17 07:42:14;;;;;;;;;;;18.60;33.10;;;;;;4985482;28;19985;-88
2023/03/17 07:44:40;;;;;;;;;;;18.90;32.90;;;;;;4986426;28;20378;-91
2023/03/17 07:47:06;;;;;;;;;;;19.20;32.40;;;;;;4982817;28;19965;-88
2023/03/17 07:49:32;;;;;;;;;;;19.40;32.30;;;;;;4983692;28;19926;-89
2023/03/17 07:51:58;;;;;;;;;;;19.70;31.80;;;;;;4986903;28;20383;-88
2023/03/17 07:54:25;;;;;;;;;;;19.80;31.10;;;;;;4985674;28;20456;-89
2023/03/17 07:56:51;;;;;;;;;;;20.00;31.50;;;;;;4986341;28;19913;-87
2023/03/17 07:59:20;;;;;;;;;;;20.30;31.40;;;;;;4984708;28;19922;-92
2023/03/17 08:01:45;;;;;;;;;;;20.80;31.40;;;;;;4987176;28;20339;-88
2023/03/17 08:04:12;;;;;;;;;;;21.30;30.80;;;;;;4985096;28;19930;-90
2023/03/17 08:06:39;;;;;;;;;;;21.80;30.20;;;;;;5000264;28;20416;-88
2023/03/17 08:09:05;;;;;;;;;;;22.30;29.30;;;;;;4984401;28;19914;-91
2023/03/17 08:11:31;;;;;;;;;;;22.60;28.20;;;;;;4984895;28;20268;-91
2023/03/17 08:14:00;;;;;;;;;;;22.80;28.00;;;;;;4986017;28;19968;-89
2023/03/17 08:16:26;;;;;;;;;;;23.10;27.50;;;;;;4983774;28;19984;-89
2023/03/17 08:18:52;;;;;;;;;;;23.20;26.50;;;;;;4987140;28;19913;-86
2023/03/17 08:21:17;;;;;;;;;;;23.30;26.20;;;;;;4985279;28;19940;-89
2023/03/17 08:23:43;;;;;;;;;;;23.40;26.10;;;;;;4985490;28;19957;-87
2023/03/17 08:26:09;;;;;;;;;;;23.60;25.90;;;;;;4986099;28;19917;-92
2023/03/17 08:28:34;;;;;;;;;;;23.80;25.50;;;;;;5000809;28;19918;-89
2023/03/17 08:31:07;;;;;;;;;;;24.00;25.10;;;;;;4985491;28;19964;-91
2023/03/17 08:33:33;;;;;;;;;;;24.10;24.90;;;;;;4999609;28;19915;-87
2023/03/17 08:35:59;;;;;;;;;;;24.20;25.10;;;;;;4985940;28;19928;-90
2023/03/17 08:38:24;;;;;;;;;;;24.30;25.00;;;;;;4985286;28;19921;-92
2023/03/17 08:40:51;;;;;;;;;;;24.30;24.50;;;;;;4985857;28;19914;-89
2023/03/17 08:43:17;;;;;;;;;;;24.30;24.90;;;;;;4984240;28;20000;-89
2023/03/17 08:45:43;;;;;;;;;;;24.40;24.70;;;;;;4983514;28;19914;-88
2023/03/17 08:48:09;;;;;;;;;;;24.50;24.70;;;;;;4985286;28;20474;-87
2023/03/17 08:50:34;;;;;;;;;;;24.50;24.40;;;;;;4984888;28;19964;-90
2023/03/17 08:53:00;;;;;;;;;;;24.60;24.30;;;;;;4987135;28;20069;-90
2023/03/17 08:55:26;;;;;;;;;;;24.70;24.30;;;;;;4984286;28;19921;-91
2023/03/17 08:57:52;;;;;;;;;;;24.70;24.20;;;;;;4985089;28;20281;-88
2023/03/17 09:00:25;;;;;;;;;;;24.70;24.70;;;;;;4984128;28;20816;-89
2023/03/17 09:02:51;;;;;;;;;;;24.80;24.30;;;;;;4986441;28;19933;-92
2023/03/17 09:05:19;;;;;;;;;;;25.00;24.40;;;;;;4982153;28;19918;-88
2023/03/17 09:07:46;;;;;;;;;;;25.10;24.30;;;;;;4985038;28;20368;-88
2023/03/17 09:10:22;;;;;;;;;;;;;;;;;;;;;
2023/03/17 09:12:52;;;;;;;;;;;25.20;24.00;;;;;;4984689;28;19921;-87
2023/03/17 09:15:17;;;;;;;;;;;25.20;24.00;;;;;;4983429;28;21546;-90
2023/03/17 09:17:46;;;;;;;;;;;25.20;23.90;;;;;;4986754;28;19921;-88
2023/03/17 09:20:12;;;;;;;;;;;25.30;24.10;;;;;;4984414;28;19920;-90
2023/03/17 09:22:38;;;;;;;;;;;25.30;23.80;;;;;;5003478;28;19930;-88
2023/03/17 09:25:07;;;;;;;;;;;25.30;23.80;;;;;;4987572;28;19929;-88
2023/03/17 09:27:32;;;;;;;;;;;25.40;24.10;;;;;;4988428;28;19918;-89
2023/03/17 09:29:58;;;;;;;;;;;25.50;24.20;;;;;;4989112;28;19918;-89
2023/03/17 09:32:26;;;;;;;;;;;25.80;24.40;;;;;;4987274;28;20372;-89
2023/03/17 09:34:52;;;;;;;;;;;26.00;24.70;;;;;;4988919;28;19921;-90
2023/03/17 09:37:18;;;;;;;;;;;26.20;24.40;;;;;;4989496;28;19914;-90
2023/03/17 09:39:43;;;;;;;;;;;26.30;23.90;;;;;;4989912;28;20250;-91
2023/03/17 09:42:27;;;;;;;;;;;26.40;23.70;;;;;;4990432;28;20009;-88
2023/03/17 09:45:04;;;;;;;;;;;26.60;23.60;;;;;;4988732;28;19936;-91
2023/03/17 09:47:48;;;;;;;;;;;26.70;23.60;;;;;;4984678;28;20276;-88
2023/03/17 09:50:26;;;;;;;;;;;26.80;23.30;;;;;;4990357;28;19918;-89
2023/03/17 09:52:54;;;;;;;;;;;27.00;23.30;;;;;;4986554;28;19913;-88
2023/03/17 09:55:25;;;;;;;;;;;27.10;23.50;;;;;;4988777;28;19957;-89
2023/03/17 09:57:59;;;;;;;;;;;27.30;23.20;;;;;;4988866;28;19914;-89
2023/03/17 10:00:28;;;;;;;;;;;27.50;23.00;;;;;;4988465;28;20374;-90
2023/03/17 10:02:56;;;;;;;;;;;27.80;23.30;;;;;;4992541;28;19929;-92
2023/03/17 10:05:22;;;;;;;;;;;28.20;23.60;;;;;;4991441;28;20459;-90
2023/03/17 10:07:52;;;;;;;;;;;28.70;23.20;;;;;;4998509;28;19964;-87
2023/03/17 10:10:36;;;;;;;;;;;29.00;21.60;;;;;;5006293;28;19933;-90
2023/03/17 10:13:20;;;;;;;;;;;29.10;21.10;;;;;;5001467;28;19964;-89
2023/03/17 10:15:57;;;;;;;;;;;29.30;20.80;;;;;;4986470;28;19922;-90
2023/03/17 10:18:25;;;;;;;;;;;29.30;20.40;;;;;;4987963;28;19917;-88
2023/03/17 10:20:53;;;;;;;;;;;29.40;20.00;;;;;;4989522;28;20350;-88
2023/03/17 10:23:24;;;;;;;;;;;29.50;20.10;;;;;;4990479;28;19934;-90
2023/03/17 10:25:51;;;;;;;;;;;29.60;20.30;;;;;;4990935;28;20273;-90
2023/03/17 10:28:31;;;;;;;;;;;29.80;20.20;;;;;;4989098;28;20469;-88
2023/03/17 10:31:00;;;;;;;;;;;29.80;19.50;;;;;;4990226;28;21651;-89
2023/03/17 10:33:26;;;;;;;;;;;29.90;19.50;;;;;;4990011;28;19922;-91
2023/03/17 10:35:52;;;;;;;;;;;30.20;19.80;;;;;;4988673;28;19964;-91
2023/03/17 10:38:21;;;;;;;;;;;30.40;19.40;;;;;;4986870;28;19913;-92
2023/03/17 10:40:55;;;;;;;;;;;30.60;19.20;;;;;;5000785;28;19914;-90
2023/03/17 10:43:21;;;;;;;;;;;30.70;19.10;;;;;;4986153;28;19961;-90
2023/03/17 10:46:00;;;;;;;;;;;30.90;19.00;;;;;;4985290;28;19956;-90
2023/03/17 10:48:26;;;;;;;;;;;31.10;18.90;;;;;;4987186;28;20028;-92
2023/03/17 10:50:52;;;;;;;;;;;31.50;18.60;;;;;;4986387;28;19914;-89
2023/03/17 10:53:26;;;;;;;;;;;31.70;18.40;;;;;;4988674;28;19928;-90
2023/03/17 10:56:04;;;;;;;;;;;;;;;;;;;;;
2023/03/17 10:58:33;;;;;;;;;;;31.50;17.50;;;;;;4988318;28;19924;-90
2023/03/17 11:01:09;;;;;;;;;;;31.20;17.80;;;;;;4984597;28;19987;-92
2023/03/17 11:03:51;;;;;;;;;;;30.90;18.40;;;;;;4986917;28;19953;-90
2023/03/17 11:07:00;;;;;;;;;;;30.70;18.70;;;;;;4985814;28;19961;-92
2023/03/17 11:12:57;;;;;;;;;;;30.90;19.10;;;;;;4957104;28;19914;-90
2023/03/17 11:15:45;;;;;;;;;;;31.40;19.00;;;;;;4987765;28;19922;-90
2023/03/17 11:18:18;;;;;;;;;;;31.90;19.00;;;;;;4969375;28;19922;-90
2023/03/17 11:20:52;;;;;;;;;;;32.00;18.00;;;;;;4987414;28;20016;-91
2023/03/17 11:23:25;;;;;;;;;;;32.00;18.10;;;;;;4987095;28;21126;-88
2023/03/17 11:26:05;;;;;;;;;;;32.00;18.50;;;;;;4987688;28;20361;-88
2023/03/17 11:28:34;;;;;;;;;;;32.10;18.20;;;;;;4990038;28;19945;-90
2023/03/17 11:31:16;;;;;;;;;;;32.20;18.00;;;;;;4987158;28;19918;-91
2023/03/17 11:34:02;;;;;;;;;;;32.20;17.90;;;;;;4984991;28;19988;-90
2023/03/17 11:36:49;;;;;;;;;;;31.90;17.40;;;;;;4989530;28;20051;-92
2023/03/17 11:39:16;;;;;;;;;;;31.70;17.80;;;;;;4989371;28;19933;-92
2023/03/17 11:42:00;;;;;;;;;;;31.60;18.20;;;;;;4989314;28;19928;-90
2023/03/17 11:44:34;;;;;;;;;;;31.30;17.90;;;;;;4986835;28;19937;-91
2023/03/17 11:47:25;;;;;;;;;;;30.90;18.30;;;;;;4989227;28;19929;-91
2023/03/17 11:50:01;;;;;;;;;;;30.60;18.40;;;;;;5004832;28;20576;-90
2023/03/17 11:52:37;;;;;;;;;;;30.40;19.10;;;;;;4989016;28;20292;-88
2023/03/17 11:55:21;;;;;;;;;;;30.30;19.10;;;;;;4987815;28;20369;-90
2023/03/17 11:57:56;;;;;;;;;;;29.90;19.10;;;;;;4989552;28;19914;-92
2023/03/17 12:00:26;;;;;;;;;;;29.80;19.30;;;;;;4988978;28;19918;-91
2023/03/17 12:03:01;;;;;;;;;;;29.80;19.40;;;;;;4980725;28;20368;-92
2023/03/17 12:05:28;;;;;;;;;;;29.80;19.50;;;;;;4987750;28;19918;-91
2023/03/17 12:07:57;;;;;;;;;;;29.80;19.60;;;;;;4989253;28;19956;-91
2023/03/17 12:10:24;;;;;;;;;;;30.00;19.70;;;;;;4987762;28;20602;-93
2023/03/17 12:13:08;;;;;;;;;;;30.10;19.60;;;;;;4988446;28;20452;-91
2023/03/17 12:16:02;;;;;;;;;;;30.10;19.40;;;;;;4988786;28;19921;-90
2023/03/17 12:18:34;;;;;;;;;;;29.90;19.60;;;;;;4985223;28;19918;-89
2023/03/17 12:21:08;;;;;;;;;;;29.80;19.60;;;;;;4986883;28;19948;-91
2023/03/17 12:23:37;;;;;;;;;;;29.60;19.80;;;;;;4985102;28;19930;-92
2023/03/17 12:26:06;;;;;;;;;;;29.60;20.00;;;;;;4983717;28;19921;-91
2023/03/17 12:29:13;;;;;;;;;;;29.70;20.00;;;;;;4984367;28;19922;-91
2023/03/17 12:38:55;;;;;;;;;;;30.10;20.10;;;;;;4957366;28;19980;-92
2023/03/17 12:41:57;;;;;;;;;;;30.50;20.00;;;;;;4963083;28;19926;-90
2023/03/17 12:54:34;;;;;;;;;;;;;;;;;;;;;
2023/03/17 13:00:49;;;;;;;;;;;29.40;19.70;;;;;;4910254;28;19929;-90
2023/03/17 13:03:26;;;;;;;;;;;29.20;20.10;;;;;;4954473;28;19930;-89
2023/03/17 13:06:21;;;;;;;;;;;29.30;20.40;;;;;;4956918;28;19921;-90
2023/03/17 13:08:51;;;;;;;;;;;29.30;20.30;;;;;;4982593;28;19918;-92
2023/03/17 13:11:57;;;;;;;;;;;29.20;20.10;;;;;;4948377;28;20424;-93
2023/03/17 13:17:15;;;;;;;;;;;28.90;20.40;;;;;;4919543;29;19914;-92
2023/03/17 13:20:03;;;;;;;;;;;28.70;20.40;;;;;;4939168;28;20009;-92
2023/03/17 13:22:41;;;;;;;;;;;28.60;20.80;;;;;;4948581;28;20362;-89
2023/03/17 13:25:35;;;;;;;;;;;28.70;20.90;;;;;;4935247;29;19919;-94
2023/03/17 13:28:19;;;;;;;;;;;;;;;;;;;;;
2023/03/17 13:40:43;;;;;;;;;;;28.50;21.10;;;;;;4950064;28;20357;-92
2023/03/17 13:43:18;;;;;;;;;;;28.40;21.10;;;;;;4882467;29;19931;-93
2023/03/17 13:49:01;;;;;;;;;;;28.30;21.80;;;;;;4959133;28;19956;-88
2023/03/17 13:51:33;;;;;;;;;;;28.30;22.10;;;;;;4991364;28;19918;-90
2023/03/17 13:54:21;;;;;;;;;;;28.20;22.20;;;;;;4988941;28;20002;-93
2023/03/17 13:57:00;;;;;;;;;;;;;;;;;;;;;
2023/03/17 13:59:45;;;;;;;;;;;27.90;22.00;;;;;;4948865;28;19918;-90
2023/03/17 14:02:34;;;;;;;;;;;27.70;22.10;;;;;;4949360;28;19925;-92
2023/03/17 14:05:27;;;;;;;;;;;27.70;22.50;;;;;;4979583;28;19929;-92
2023/03/17 14:08:04;;;;;;;;;;;27.50;22.60;;;;;;4969514;28;19972;-88
2023/03/17 14:13:42;;;;;;;;;;;27.40;22.90;;;;;;4962670;28;19921;-90
2023/03/17 14:16:25;;;;;;;;;;;27.30;23.00;;;;;;4907045;29;19930;-93
2023/03/17 14:19:27;;;;;;;;;;;27.40;23.10;;;;;;4985928;28;19918;-91
2023/03/17 14:21:56;;;;;;;;;;;27.30;23.30;;;;;;4958068;28;19914;-90
2023/03/17 14:24:28;;;;;;;;;;;27.30;23.50;;;;;;4982743;28;19951;-90
2023/03/17 14:27:17;;;;;;;;;;;27.20;23.40;;;;;;4987311;28;19920;-91
2023/03/17 14:33:12;;;;;;;;;;;27.00;23.70;;;;;;4923275;29;20017;-90
2023/03/17 14:36:04;;;;;;;;;;;26.80;24.00;;;;;;4901879;29;19947;-90
2023/03/17 14:38:34;;;;;;;;;;;26.50;24.10;;;;;;4976639;28;19924;-91
2023/03/17 14:41:30;;;;;;;;;;;26.40;24.30;;;;;;4988256;28;19918;-90
2023/03/17 14:44:02;;;;;;;;;;;26.20;24.50;;;;;;4995421;28;19976;-90
2023/03/17 14:46:34;;;;;;;;;;;26.20;24.80;;;;;;4983043;28;19922;-90
2023/03/17 14:49:01;;;;;;;;;;;26.10;24.90;;;;;;4985807;28;20008;-88
2023/03/17 14:52:16;;;;;;;;;;;26.00;25.10;;;;;;4980292;28;19921;-91
2023/03/17 14:54:48;;;;;;;;;;;25.80;25.20;;;;;;4957260;28;19929;-90
2023/03/17 14:57:16;;;;;;;;;;;25.70;25.30;;;;;;4990200;28;19913;-90
2023/03/17 14:59:55;;;;;;;;;;;25.60;25.40;;;;;;4989783;28;19925;-93
2023/03/17 15:02:52;;;;;;;;;;;25.50;25.30;;;;;;4992507;28;19922;-91
2023/03/17 15:05:49;;;;;;;;;;;25.40;25.30;;;;;;4981372;28;19918;-91
2023/03/17 15:08:36;;;;;;;;;;;25.30;25.40;;;;;;4966076;28;19957;-90
2023/03/17 15:11:03;;;;;;;;;;;25.20;25.50;;;;;;4984077;28;20568;-91
2023/03/17 15:13:38;;;;;;;;;;;25.10;25.80;;;;;;4978570;28;20299;-90
2023/03/17 15:16:57;;;;;;;;;;;25.10;25.90;;;;;;4989440;28;19968;-91
2023/03/17 15:23:18;;;;;;;;;;;;;;;;;;;;;
2023/03/17 15:25:54;;;;;;;;;;;24.70;26.20;;;;;;4939986;29;20289;-93
2023/03/17 15:28:50;;;;;;;;;;;;;;;;;;;;;
2023/03/17 15:31:23;;;;;;;;;;;24.30;26.70;;;;;;4952666;28;19925;-89
2023/03/17 15:33:59;;;;;;;;;;;24.30;26.90;;;;;;4990985;28;20009;-90
2023/03/17 15:36:25;;;;;;;;;;;24.10;27.00;;;;;;4989857;28;19964;-89